163-й км МНП

Карта отелей и гостиниц, располагающихся рядом с аэропортом 163-й км МНП :

163-й км МНП Республика Коми 65° 4' 39.7812" N, 57° 13' 56.1" E
163-й км МНП Республика Коми 65° 4' 39.7812" N, 57° 13' 56.1" E
Код аэродрома ИКАО: 
UUPM
Код аэродрома RU: 
УУПМ
Координаты: 
N65.07772° E057.23225°
Превышение над уровнем моря : 
65
Основная полоса: 
10/28
Курс магнитный: 
099,6/279,6
Длина основной ВПП: 
30
Ширина основной ВПП: 
25
Покрытие основной ВПП: 
Твёрдое (бетон)
Освещение ВПП: 
Нет
Тип: 
Вертодром
Класс аэродрома: 
Принадлежность: 
ГА
Статус: 
Действующий
Сайт: 
E-mail аэродрома: 
Страна: 
Россия
Регион: 
Республика Коми
Город: 
Дополнительная информация: 
Оператор: Нефте-перекачивающая станция (НПС) "Печора".

Найти трансфер

С помощью этой формы Вы можете найти трансфер из аэропорта 163-й км МНП в город, аэропорт или вокзал:

Карта места

Javascript is required to view this map.

Погода в аэропортах:

Авиационная погода в Ивано-Франковске

Регион: 
Погода METAR: 
UKLI 270730Z VRB01MPS 7000 -SHRA BKN020CB BKN030 10/10 Q1003 R10/290565 NOSIG
Время наблюдения: 
2020-09-27T07:30:00Z
Температура C: 
10.0
Точка росы: 
10.0
Направление ветра: 
0
Скорость ветра (узлы): 
2
Метеорологическая видимость: 
4.35
Явления погоды: 
-SHRA
Условия полета: 
MVFR
Аэропорт подробнее: 

Авиационная погода в Мурманске

Регион: 
Погода METAR: 
ULMM 270730Z 14002MPS 1300 1200SW R31/1300D BR SCT003 02/02 Q1031 R31/290060 BECMG 5000 BR SCT016 RMK QBB100 OBST OBSC QFE765
Время наблюдения: 
2020-09-27T07:30:00Z
Температура C: 
2.0
Точка росы: 
2.0
Направление ветра: 
140
Скорость ветра (узлы): 
4
Метеорологическая видимость: 
0.81
Явления погоды: 
BR
Условия полета: 
LIFR
Аэропорт подробнее: 

Авиационная погода в Хомутово

Регион: 
Погода METAR: 
UHSS 270730Z 35006MPS 9999 -SHRA BKN032CB 08/06 Q1016 R01/250255 NOSIG RMK MT OBSC QFE761/1014
Время наблюдения: 
2020-09-27T07:30:00Z
Температура C: 
8.0
Точка росы: 
6.0
Направление ветра: 
350
Скорость ветра (узлы): 
12
Метеорологическая видимость: 
6.21
Явления погоды: 
-SHRA
Условия полета: 
VFR
Аэропорт подробнее: 

Авиационная погода в Минеральные Воды

Регион: 
Погода METAR: 
URMM 270730Z 11007MPS 9999 -DZ OVC009 18/15 Q1018 R12/090070 NOSIG RMK MT OBSC QFE735/0980
Время наблюдения: 
2020-09-27T07:30:00Z
Температура C: 
18.0
Точка росы: 
15.0
Направление ветра: 
110
Скорость ветра (узлы): 
14
Метеорологическая видимость: 
6.21
Явления погоды: 
-DZ
Условия полета: 
IFR
Аэропорт подробнее: